Time;durP1;ratioP1;P1;durP2;ratioP2;P2;SDS_P1;SDS_P2;PMS_P1;PMS_P2;Temp;Humidity;BMP_temperature;BMP_pressure;BME280_temperature;BME280_humidity;BME280_pressure;Samples;Min_cycle;Max_cycle;Signal;HPM_P1;HPM_P2
2023/05/03 00:01:12;;;;;;;5.43;1.80;;;;;;;;;;5054177;28;20033;-79
2023/05/03 00:03:38;;;;;;;5.30;1.90;;;;;;;;;;5058912;28;20119;-78
2023/05/03 00:06:11;;;;;;;4.93;1.67;;;;;;;;;;5043214;28;20045;-79
2023/05/03 00:08:37;;;;;;;6.60;2.00;;;;;;;;;;5053887;28;20024;-78
2023/05/03 00:11:03;;;;;;;10.57;1.98;;;;;;;;;;5046205;28;20032;-78
2023/05/03 00:13:29;;;;;;;6.30;1.80;;;;;;;;;;5044174;28;20037;-78
2023/05/03 00:15:55;;;;;;;4.43;1.73;;;;;;;;;;5040160;28;20040;-77
2023/05/03 00:18:21;;;;;;;6.43;2.05;;;;;;;;;;5054449;28;20424;-77
2023/05/03 00:20:47;;;;;;;7.55;1.98;;;;;;;;;;5042804;28;20021;-77
2023/05/03 00:23:13;;;;;;;3.22;1.60;;;;;;;;;;5048573;28;20056;-78
2023/05/03 00:25:39;;;;;;;2.25;1.65;;;;;;;;;;5049229;28;20456;-77
2023/05/03 00:28:05;;;;;;;5.88;1.95;;;;;;;;;;5046612;28;20033;-78
2023/05/03 00:30:31;;;;;;;6.30;2.30;;;;;;;;;;5047417;28;20035;-77
2023/05/03 00:32:57;;;;;;;6.22;2.00;;;;;;;;;;5049209;28;20107;-76
2023/05/03 00:35:23;;;;;;;7.78;2.00;;;;;;;;;;5047880;28;20549;-77
2023/05/03 00:37:49;;;;;;;7.40;2.10;;;;;;;;;;5048082;28;20092;-77
2023/05/03 00:40:17;;;;;;;6.75;1.95;;;;;;;;;;5054328;28;20367;-77
2023/05/03 00:42:43;;;;;;;7.68;2.10;;;;;;;;;;5050574;28;20025;-77
2023/05/03 00:45:10;;;;;;;5.70;2.08;;;;;;;;;;5057773;28;20052;-77
2023/05/03 00:47:36;;;;;;;5.45;2.53;;;;;;;;;;5049151;28;20063;-77
2023/05/03 00:50:03;;;;;;;5.60;1.95;;;;;;;;;;5046822;28;20035;-77
2023/05/03 00:52:29;;;;;;;4.47;2.17;;;;;;;;;;5058940;28;20068;-76
2023/05/03 00:54:57;;;;;;;7.25;2.42;;;;;;;;;;5049939;28;20048;-76
2023/05/03 00:57:23;;;;;;;7.20;2.20;;;;;;;;;;5047252;28;20388;-77
2023/05/03 00:59:49;;;;;;;7.72;2.40;;;;;;;;;;5051640;28;20031;-77
2023/05/03 01:02:15;;;;;;;6.97;2.53;;;;;;;;;;5049146;28;20040;-78
2023/05/03 01:04:42;;;;;;;8.98;2.65;;;;;;;;;;5044005;28;20037;-77
2023/05/03 01:07:15;;;;;;;3.78;2.17;;;;;;;;;;5052524;28;20394;-78
2023/05/03 01:10:00;;;;;;;4.38;2.65;;;;;;;;;;5046350;28;20112;-78
2023/05/03 01:12:45;;;;;;;6.55;2.97;;;;;;;;;;5057745;28;20039;-76
2023/05/03 01:15:37;;;;;;;4.97;2.50;;;;;;;;;;5040540;28;20022;-77
2023/05/03 01:18:09;;;;;;;11.33;2.97;;;;;;;;;;5038001;28;20063;-76
2023/05/03 01:20:36;;;;;;;6.55;2.60;;;;;;;;;;5037338;28;20295;-77
2023/05/03 01:23:06;;;;;;;5.80;2.22;;;;;;;;;;5047745;28;20514;-76
2023/05/03 01:25:32;;;;;;;15.18;2.88;;;;;;;;;;5047267;28;20018;-76
2023/05/03 01:27:58;;;;;;;4.70;2.30;;;;;;;;;;5039572;28;20039;-76
2023/05/03 01:30:26;;;;;;;8.27;2.65;;;;;;;;;;5053139;28;20029;-77
2023/05/03 01:33:16;;;;;;;11.65;3.50;;;;;;;;;;5045117;28;20033;-76
2023/05/03 01:35:45;;;;;;;5.10;2.30;;;;;;;;;;5043108;28;20028;-76
2023/05/03 01:38:11;;;;;;;6.25;3.05;;;;;;;;;;5044666;28;20116;-77
2023/05/03 01:40:59;;;;;;;7.75;2.30;;;;;;;;;;5047016;28;20025;-76
2023/05/03 01:43:25;;;;;;;9.40;3.08;;;;;;;;;;5054284;28;20112;-77
2023/05/03 01:45:51;;;;;;;10.23;2.63;;;;;;;;;;5049271;28;20021;-77
2023/05/03 01:48:18;;;;;;;3.22;2.50;;;;;;;;;;5047262;28;20556;-77
2023/05/03 01:50:44;;;;;;;10.55;2.53;;;;;;;;;;5041800;28;20030;-76
2023/05/03 01:53:10;;;;;;;7.57;2.47;;;;;;;;;;5057333;28;20059;-77
2023/05/03 01:55:36;;;;;;;5.60;2.60;;;;;;;;;;5043710;28;20386;-76
2023/05/03 01:58:05;;;;;;;8.32;2.70;;;;;;;;;;5052166;28;20090;-77
2023/05/03 02:00:31;;;;;;;9.68;3.42;;;;;;;;;;5049228;28;20400;-76
2023/05/03 02:02:57;;;;;;;8.65;2.50;;;;;;;;;;5046600;28;20110;-77
2023/05/03 02:05:23;;;;;;;6.07;2.50;;;;;;;;;;5040391;28;20053;-78
2023/05/03 02:07:49;;;;;;;7.05;3.13;;;;;;;;;;5046151;28;20098;-77
2023/05/03 02:10:15;;;;;;;10.23;3.40;;;;;;;;;;5043264;28;20196;-77
2023/05/03 02:12:42;;;;;;;3.80;2.50;;;;;;;;;;5043814;28;20029;-77
2023/05/03 02:15:08;;;;;;;6.53;2.58;;;;;;;;;;5053759;28;20079;-76
2023/05/03 02:17:34;;;;;;;5.20;2.50;;;;;;;;;;5036459;28;20033;-76
2023/05/03 02:20:00;;;;;;;9.45;2.95;;;;;;;;;;5051838;28;20045;-77
2023/05/03 02:22:26;;;;;;;5.15;2.70;;;;;;;;;;5056998;28;20420;-76
2023/05/03 02:24:54;;;;;;;5.85;2.38;;;;;;;;;;5052243;28;20570;-76
2023/05/03 02:27:20;;;;;;;4.50;2.47;;;;;;;;;;5055032;28;20052;-76
2023/05/03 02:29:46;;;;;;;5.65;2.85;;;;;;;;;;5056148;28;20044;-76
2023/05/03 02:32:12;;;;;;;5.65;2.13;;;;;;;;;;5054033;28;20029;-77
2023/05/03 02:34:38;;;;;;;7.72;2.13;;;;;;;;;;5051948;28;20036;-76
2023/05/03 02:37:05;;;;;;;6.63;3.22;;;;;;;;;;5051868;28;20041;-76
2023/05/03 02:39:31;;;;;;;7.05;2.53;;;;;;;;;;5050690;28;20048;-76
2023/05/03 02:41:57;;;;;;;9.85;2.90;;;;;;;;;;5051918;28;20033;-76
2023/05/03 02:44:23;;;;;;;6.22;2.40;;;;;;;;;;5056366;28;20493;-76
2023/05/03 02:46:49;;;;;;;6.65;2.20;;;;;;;;;;5045611;28;20385;-75
2023/05/03 02:49:15;;;;;;;4.30;2.20;;;;;;;;;;5048119;28;20053;-76
2023/05/03 02:51:42;;;;;;;6.78;2.35;;;;;;;;;;5050339;28;20025;-76
2023/05/03 02:54:08;;;;;;;5.85;1.92;;;;;;;;;;5039096;28;20037;-76
2023/05/03 02:56:34;;;;;;;8.00;3.05;;;;;;;;;;5052402;28;20048;-76
2023/05/03 02:59:00;;;;;;;6.13;2.40;;;;;;;;;;5052498;28;20587;-76
2023/05/03 03:01:27;;;;;;;5.00;2.22;;;;;;;;;;5046514;28;20024;-77
2023/05/03 03:03:53;;;;;;;4.80;2.17;;;;;;;;;;5050022;28;20432;-77
2023/05/03 03:06:19;;;;;;;8.10;2.58;;;;;;;;;;5047352;28;20040;-77
2023/05/03 03:08:45;;;;;;;4.50;1.80;;;;;;;;;;5049092;28;20108;-77
2023/05/03 03:11:11;;;;;;;5.50;2.55;;;;;;;;;;5047513;28;20108;-78
2023/05/03 03:13:40;;;;;;;8.45;3.00;;;;;;;;;;5039604;28;20155;-77
2023/05/03 03:16:06;;;;;;;4.10;2.03;;;;;;;;;;5054888;28;20111;-77
2023/05/03 03:18:33;;;;;;;11.20;2.15;;;;;;;;;;5062781;28;20041;-77
2023/05/03 03:21:00;;;;;;;6.63;2.25;;;;;;;;;;5049438;28;20028;-76
2023/05/03 03:23:26;;;;;;;7.75;1.70;;;;;;;;;;5052562;28;20416;-77
2023/05/03 03:25:52;;;;;;;9.38;1.88;;;;;;;;;;5049192;28;20160;-77
2023/05/03 03:28:18;;;;;;;3.40;1.70;;;;;;;;;;5061241;28;20043;-77
2023/05/03 03:30:44;;;;;;;6.13;2.65;;;;;;;;;;5042835;28;20112;-77
2023/05/03 03:33:10;;;;;;;11.95;3.38;;;;;;;;;;5048505;28;20135;-78
2023/05/03 03:35:37;;;;;;;6.57;2.20;;;;;;;;;;5049921;28;20497;-77
2023/05/03 03:38:03;;;;;;;4.45;1.92;;;;;;;;;;5048898;28;20029;-77
2023/05/03 03:40:29;;;;;;;2.45;1.77;;;;;;;;;;5049383;28;20079;-78
2023/05/03 03:42:56;;;;;;;3.47;2.00;;;;;;;;;;5055902;28;20043;-77
2023/05/03 03:45:22;;;;;;;2.85;1.73;;;;;;;;;;5051192;28;20037;-77
2023/05/03 03:47:48;;;;;;;5.70;2.20;;;;;;;;;;5056904;28;20547;-77
2023/05/03 03:50:14;;;;;;;5.45;1.98;;;;;;;;;;5047798;28;20112;-77
2023/05/03 03:52:40;;;;;;;4.68;2.22;;;;;;;;;;5050795;28;20060;-77
2023/05/03 03:55:06;;;;;;;3.95;1.70;;;;;;;;;;5041547;28;20037;-73
2023/05/03 03:57:32;;;;;;;8.82;2.13;;;;;;;;;;5044713;28;20040;-79
2023/05/03 03:59:58;;;;;;;4.85;1.92;;;;;;;;;;5033792;28;20041;-81
2023/05/03 04:02:25;;;;;;;3.90;1.75;;;;;;;;;;5042660;28;20021;-80
2023/05/03 04:04:52;;;;;;;6.10;2.35;;;;;;;;;;5048736;28;20031;-79
2023/05/03 04:07:20;;;;;;;94.82;49.05;;;;;;;;;;5050739;28;20033;-79
2023/05/03 04:09:46;;;;;;;8.93;4.70;;;;;;;;;;5042211;28;20033;-79
2023/05/03 04:12:12;;;;;;;7.90;3.40;;;;;;;;;;5046068;28;20021;-80
2023/05/03 04:14:38;;;;;;;4.88;2.40;;;;;;;;;;5051891;28;20135;-78
2023/05/03 04:17:05;;;;;;;5.75;2.42;;;;;;;;;;5044643;28;21417;-79
2023/05/03 04:19:32;;;;;;;6.03;2.42;;;;;;;;;;5038686;28;20040;-79
2023/05/03 04:21:58;;;;;;;5.72;2.35;;;;;;;;;;5045537;28;20036;-78
2023/05/03 04:24:24;;;;;;;3.72;2.08;;;;;;;;;;5049114;28;20037;-78
2023/05/03 04:26:51;;;;;;;4.80;2.10;;;;;;;;;;5051605;28;20061;-79
2023/05/03 04:29:18;;;;;;;11.02;4.05;;;;;;;;;;5050466;28;20460;-77
2023/05/03 04:31:45;;;;;;;6.57;2.33;;;;;;;;;;5046012;28;20079;-77
2023/05/03 04:34:14;;;;;;;6.15;2.25;;;;;;;;;;5038999;28;20033;-77
2023/05/03 04:36:45;;;;;;;3.97;2.95;;;;;;;;;;5045121;28;20041;-76
2023/05/03 04:39:12;;;;;;;10.50;2.30;;;;;;;;;;5047455;28;20038;-77
2023/05/03 04:41:40;;;;;;;4.95;2.22;;;;;;;;;;5041981;28;20496;-75
2023/05/03 04:44:06;;;;;;;3.22;2.25;;;;;;;;;;5037669;28;20047;-75
2023/05/03 04:46:32;;;;;;;5.88;2.50;;;;;;;;;;5036549;28;20045;-76
2023/05/03 04:48:58;;;;;;;6.28;2.35;;;;;;;;;;5033694;28;20105;-76
2023/05/03 04:51:24;;;;;;;3.95;2.25;;;;;;;;;;5039188;28;20104;-76
2023/05/03 04:53:50;;;;;;;4.82;2.42;;;;;;;;;;5043690;28;20040;-76
2023/05/03 04:56:18;;;;;;;6.18;2.03;;;;;;;;;;5041649;28;20033;-75
2023/05/03 04:58:44;;;;;;;10.73;7.28;;;;;;;;;;5036483;28;20041;-78
2023/05/03 05:01:11;;;;;;;4.07;2.85;;;;;;;;;;5041556;28;20453;-76
2023/05/03 05:03:37;;;;;;;18.98;9.07;;;;;;;;;;5041946;28;20013;-75
2023/05/03 05:06:03;;;;;;;15.23;8.43;;;;;;;;;;5043837;28;20094;-74
2023/05/03 05:08:29;;;;;;;5.15;2.60;;;;;;;;;;5052084;28;20044;-76
2023/05/03 05:10:55;;;;;;;6.25;2.13;;;;;;;;;;5044912;28;20570;-77
2023/05/03 05:13:21;;;;;;;5.15;2.50;;;;;;;;;;5040534;28;20465;-75
2023/05/03 05:15:48;;;;;;;6.35;2.95;;;;;;;;;;5044084;28;20032;-74
2023/05/03 05:18:15;;;;;;;10.55;2.60;;;;;;;;;;5043033;28;20136;-76
2023/05/03 05:20:42;;;;;;;3.42;2.50;;;;;;;;;;5044382;28;20044;-74
2023/05/03 05:23:11;;;;;;;2.65;1.83;;;;;;;;;;5046710;28;20037;-76
2023/05/03 05:25:37;;;;;;;5.47;2.25;;;;;;;;;;5043004;28;20102;-76
2023/05/03 05:28:03;;;;;;;4.57;2.25;;;;;;;;;;5042509;28;20052;-76
2023/05/03 05:30:32;;;;;;;6.15;2.78;;;;;;;;;;5045161;28;20036;-75
2023/05/03 05:32:58;;;;;;;8.52;2.20;;;;;;;;;;5044248;28;20025;-75
2023/05/03 05:35:24;;;;;;;5.10;2.20;;;;;;;;;;5041269;28;20029;-75
2023/05/03 05:37:50;;;;;;;10.52;2.50;;;;;;;;;;5043987;28;20045;-75
2023/05/03 05:40:16;;;;;;;6.53;2.30;;;;;;;;;;5047506;28;20091;-70
2023/05/03 05:42:42;;;;;;;3.63;1.52;;;;;;;;;;5048030;28;20108;-70
2023/05/03 05:45:10;;;;;;;7.43;2.00;;;;;;;;;;5047087;28;20384;-70
2023/05/03 05:47:37;;;;;;;4.85;2.25;;;;;;;;;;5040436;28;20047;-70
2023/05/03 05:50:03;;;;;;;5.78;1.92;;;;;;;;;;5047113;28;20045;-77
2023/05/03 05:52:29;;;;;;;7.47;2.00;;;;;;;;;;5039367;28;20164;-76
2023/05/03 05:54:55;;;;;;;10.88;5.40;;;;;;;;;;5043478;28;20068;-75
2023/05/03 05:57:21;;;;;;;16.15;3.55;;;;;;;;;;5047487;28;20124;-75
2023/05/03 05:59:47;;;;;;;5.20;1.60;;;;;;;;;;5052763;28;20116;-73
2023/05/03 06:02:16;;;;;;;5.35;1.63;;;;;;;;;;5045735;28;20033;-73
2023/05/03 06:04:43;;;;;;;4.13;1.48;;;;;;;;;;5052250;28;20215;-73
2023/05/03 06:07:09;;;;;;;2.50;1.08;;;;;;;;;;5047403;28;20152;-73
2023/05/03 06:09:37;;;;;;;4.55;1.50;;;;;;;;;;5055898;28;20041;-72
2023/05/03 06:12:03;;;;;;;4.10;1.02;;;;;;;;;;5040373;28;20067;-74
2023/05/03 06:14:29;;;;;;;3.28;0.93;;;;;;;;;;5039913;28;20490;-73
2023/05/03 06:16:55;;;;;;;3.97;1.73;;;;;;;;;;5048536;28;20090;-75
2023/05/03 06:19:23;;;;;;;14.95;5.65;;;;;;;;;;5054288;28;20178;-74
2023/05/03 06:21:49;;;;;;;4.78;1.10;;;;;;;;;;5048920;28;20033;-74
2023/05/03 06:24:19;;;;;;;5.78;2.05;;;;;;;;;;5046188;28;20035;-74
2023/05/03 06:26:46;;;;;;;4.88;1.23;;;;;;;;;;5048791;28;20037;-74
2023/05/03 06:29:12;;;;;;;3.38;0.80;;;;;;;;;;5050055;28;20040;-75
2023/05/03 06:31:40;;;;;;;25.45;10.35;;;;;;;;;;5045538;28;20036;-76
2023/05/03 06:34:08;;;;;;;6.95;3.50;;;;;;;;;;5052144;28;20025;-75
2023/05/03 06:36:34;;;;;;;3.13;1.05;;;;;;;;;;5053296;28;20086;-73
2023/05/03 06:39:03;;;;;;;2.88;0.80;;;;;;;;;;5048507;28;20037;-75
2023/05/03 06:41:32;;;;;;;5.03;1.20;;;;;;;;;;5050153;28;20026;-74
2023/05/03 06:43:58;;;;;;;2.15;0.60;;;;;;;;;;5048379;28;20468;-74
2023/05/03 06:46:25;;;;;;;4.90;0.57;;;;;;;;;;5052298;28;20043;-74
2023/05/03 06:48:55;;;;;;;6.70;1.10;;;;;;;;;;5049176;28;20076;-75
2023/05/03 06:51:29;;;;;;;7.22;0.85;;;;;;;;;;5052258;28;20035;-75
2023/05/03 06:53:56;;;;;;;3.28;0.70;;;;;;;;;;5049396;28;20025;-75
2023/05/03 06:56:23;;;;;;;4.03;1.30;;;;;;;;;;5054921;28;20477;-75
2023/05/03 06:58:49;;;;;;;4.88;1.80;;;;;;;;;;5053845;28;20128;-75
2023/05/03 07:01:17;;;;;;;5.13;1.75;;;;;;;;;;5043194;28;20021;-74
2023/05/03 07:03:44;;;;;;;4.82;0.82;;;;;;;;;;5044807;28;20025;-79
2023/05/03 07:06:10;;;;;;;4.20;0.55;;;;;;;;;;5046655;28;20094;-78
2023/05/03 07:08:36;;;;;;;2.85;0.80;;;;;;;;;;5044643;28;20517;-78
2023/05/03 07:11:03;;;;;;;4.13;1.05;;;;;;;;;;5044092;28;20028;-74
2023/05/03 07:13:29;;;;;;;3.45;0.60;;;;;;;;;;5049554;28;20094;-74
2023/05/03 07:15:55;;;;;;;5.40;0.73;;;;;;;;;;5044889;28;20482;-74
2023/05/03 07:18:21;;;;;;;3.67;0.70;;;;;;;;;;5040314;28;20083;-76
2023/05/03 07:20:47;;;;;;;1.33;0.55;;;;;;;;;;5048310;28;20457;-75
2023/05/03 07:23:14;;;;;;;12.48;7.68;;;;;;;;;;5041376;28;20138;-77
2023/05/03 07:25:41;;;;;;;20.00;8.52;;;;;;;;;;5059200;28;20060;-76
2023/05/03 07:28:07;;;;;;;4.53;1.40;;;;;;;;;;5053049;28;20037;-78
2023/05/03 07:30:33;;;;;;;4.15;0.90;;;;;;;;;;5062925;28;20031;-74
2023/05/03 07:32:59;;;;;;;4.10;0.75;;;;;;;;;;5046725;28;20481;-74
2023/05/03 07:35:26;;;;;;;5.78;0.80;;;;;;;;;;5056716;28;20491;-74
2023/05/03 07:37:52;;;;;;;5.18;0.90;;;;;;;;;;5051830;28;20032;-74
2023/05/03 07:40:18;;;;;;;3.78;0.90;;;;;;;;;;5055968;28;20040;-74
2023/05/03 07:42:45;;;;;;;2.40;0.65;;;;;;;;;;5042293;28;20365;-75
2023/05/03 07:45:11;;;;;;;2.83;0.80;;;;;;;;;;5062956;28;20024;-75
2023/05/03 07:47:38;;;;;;;3.95;1.23;;;;;;;;;;5053029;28;20127;-74
2023/05/03 07:50:05;;;;;;;4.63;1.98;;;;;;;;;;5032691;28;20045;-74
2023/05/03 07:52:35;;;;;;;4.65;0.93;;;;;;;;;;5029564;28;20041;-72
2023/05/03 07:55:02;;;;;;;3.75;0.85;;;;;;;;;;5023809;28;20021;-76
2023/05/03 07:57:28;;;;;;;5.68;0.95;;;;;;;;;;5031276;28;20034;-78
2023/05/03 07:59:56;;;;;;;2.97;0.85;;;;;;;;;;5041316;28;20386;-80
2023/05/03 08:02:22;;;;;;;3.45;0.77;;;;;;;;;;5024110;28;20029;-80
2023/05/03 08:04:49;;;;;;;5.82;0.98;;;;;;;;;;5029686;28;20107;-80
2023/05/03 08:07:19;;;;;;;6.20;1.05;;;;;;;;;;5031392;28;20382;-80
2023/05/03 08:09:45;;;;;;;2.45;1.02;;;;;;;;;;5028455;28;20513;-79
2023/05/03 08:12:11;;;;;;;4.68;0.88;;;;;;;;;;5028828;28;20501;-80
2023/05/03 08:14:37;;;;;;;5.00;1.25;;;;;;;;;;5028512;28;20481;-79
2023/05/03 08:17:03;;;;;;;2.83;0.70;;;;;;;;;;5009854;28;20058;-79
2023/05/03 08:19:30;;;;;;;2.90;0.93;;;;;;;;;;5024359;28;20037;-79
2023/05/03 08:21:57;;;;;;;1.90;0.60;;;;;;;;;;5030432;28;20426;-79
2023/05/03 08:24:23;;;;;;;5.30;0.80;;;;;;;;;;5025796;28;20033;-78
2023/05/03 08:26:50;;;;;;;3.38;0.80;;;;;;;;;;5027641;28;20068;-80
2023/05/03 08:29:16;;;;;;;4.63;0.77;;;;;;;;;;5030693;28;20030;-80
2023/05/03 08:31:44;;;;;;;4.20;1.10;;;;;;;;;;5027987;28;20033;-79
2023/05/03 08:34:12;;;;;;;3.42;0.77;;;;;;;;;;5010155;28;20545;-79
2023/05/03 08:36:38;;;;;;;1.98;0.70;;;;;;;;;;5026509;28;20079;-79
2023/05/03 08:39:10;;;;;;;3.13;1.20;;;;;;;;;;5027425;28;20031;-79
2023/05/03 08:41:36;;;;;;;4.15;0.93;;;;;;;;;;5030032;28;20199;-79
2023/05/03 08:44:04;;;;;;;5.15;0.73;;;;;;;;;;5029374;28;20041;-79
2023/05/03 08:46:30;;;;;;;4.13;0.90;;;;;;;;;;5029693;28;20115;-80
2023/05/03 08:48:56;;;;;;;1.75;0.50;;;;;;;;;;5039681;28;20041;-79
2023/05/03 08:51:23;;;;;;;3.45;0.70;;;;;;;;;;5036914;28;20036;-79
2023/05/03 08:53:49;;;;;;;2.70;0.63;;;;;;;;;;5049163;28;20063;-79
2023/05/03 08:56:36;;;;;;;2.95;1.08;;;;;;;;;;5046823;28;20486;-80
2023/05/03 08:59:06;;;;;;;6.63;0.95;;;;;;;;;;5046112;28;20034;-80
2023/05/03 09:01:33;;;;;;;2.90;0.80;;;;;;;;;;5049301;28;20402;-81
2023/05/03 09:03:59;;;;;;;2.55;0.88;;;;;;;;;;5041367;28;20025;-80
2023/05/03 09:06:25;;;;;;;3.38;1.65;;;;;;;;;;5043873;28;20147;-81
2023/05/03 09:08:52;;;;;;;6.55;1.45;;;;;;;;;;5048762;28;20040;-80
2023/05/03 09:11:22;;;;;;;4.47;0.75;;;;;;;;;;5058386;28;20040;-80
2023/05/03 09:13:49;;;;;;;3.85;0.85;;;;;;;;;;5041283;28;20024;-79
2023/05/03 09:16:22;;;;;;;6.10;1.05;;;;;;;;;;5042918;28;20177;-80
2023/05/03 09:18:58;;;;;;;5.80;0.88;;;;;;;;;;5047598;28;20032;-79
2023/05/03 09:21:24;;;;;;;4.03;0.90;;;;;;;;;;5048578;28;20524;-79
2023/05/03 09:23:51;;;;;;;8.93;2.55;;;;;;;;;;5045050;28;20148;-79
2023/05/03 09:26:31;;;;;;;4.07;0.88;;;;;;;;;;5043923;28;20076;-79
2023/05/03 09:29:01;;;;;;;2.53;0.50;;;;;;;;;;5042950;28;20020;-81
2023/05/03 09:31:28;;;;;;;2.72;0.60;;;;;;;;;;5037343;28;20492;-81
2023/05/03 09:33:54;;;;;;;3.05;1.23;;;;;;;;;;5037176;28;20035;-81
2023/05/03 09:36:20;;;;;;;5.85;1.00;;;;;;;;;;5039340;28;20120;-81
2023/05/03 09:38:46;;;;;;;2.72;0.70;;;;;;;;;;5038597;28;20074;-80
2023/05/03 09:41:12;;;;;;;3.22;0.57;;;;;;;;;;5203661;22;20042;-82
2023/05/03 09:43:49;;;;;;;2.05;0.60;;;;;;;;;;5014927;28;20036;-82
2023/05/03 09:46:15;;;;;;;2.45;0.65;;;;;;;;;;5185418;22;20106;-81
2023/05/03 09:48:42;;;;;;;3.88;0.88;;;;;;;;;;4981288;28;20554;-81
2023/05/03 09:51:09;;;;;;;2.92;1.05;;;;;;;;;;4981592;28;20050;-83
2023/05/03 09:53:35;;;;;;;5.28;1.80;;;;;;;;;;4995200;28;20034;-83
2023/05/03 09:56:02;;;;;;;6.60;1.10;;;;;;;;;;5010675;28;20451;-85
2023/05/03 09:58:29;;;;;;;2.72;0.85;;;;;;;;;;4985252;28;20031;-81
2023/05/03 10:00:56;;;;;;;7.68;1.27;;;;;;;;;;4984330;28;20649;-87
2023/05/03 10:03:27;;;;;;;4.95;0.90;;;;;;;;;;4990157;28;20455;-86
2023/05/03 10:05:54;;;;;;;2.80;0.63;;;;;;;;;;4987214;28;20031;-80
2023/05/03 10:08:40;;;;;;;5.63;0.95;;;;;;;;;;4993735;28;20053;-80
2023/05/03 10:11:08;;;;;;;3.75;0.93;;;;;;;;;;4995717;28;20034;-84
2023/05/03 10:13:34;;;;;;;3.95;0.60;;;;;;;;;;4986426;28;20034;-84
2023/05/03 10:16:03;;;;;;;4.20;1.15;;;;;;;;;;4987153;28;20088;-83
2023/05/03 10:18:30;;;;;;;2.42;0.90;;;;;;;;;;4987932;28;20038;-83
2023/05/03 10:21:01;;;;;;;3.20;1.10;;;;;;;;;;4999455;28;20030;-79
2023/05/03 10:23:27;;;;;;;4.40;0.77;;;;;;;;;;4986692;28;20455;-77
2023/05/03 10:26:14;;;;;;;3.83;0.90;;;;;;;;;;4984285;28;20086;-83
2023/05/03 10:28:40;;;;;;;4.43;0.60;;;;;;;;;;4986176;28;20046;-81
2023/05/03 10:31:06;;;;;;;3.47;1.00;;;;;;;;;;4986904;28;20038;-78
2023/05/03 10:33:35;;;;;;;5.88;0.93;;;;;;;;;;4977397;28;20101;-76
2023/05/03 10:36:05;;;;;;;2.95;0.70;;;;;;;;;;4994801;28;20411;-76
2023/05/03 10:38:32;;;;;;;6.38;0.80;;;;;;;;;;4986489;28;20042;-80
2023/05/03 10:41:00;;;;;;;13.48;6.35;;;;;;;;;;4983468;28;20038;-83
2023/05/03 10:43:29;;;;;;;6.60;2.30;;;;;;;;;;4978879;28;20031;-81
2023/05/03 10:46:02;;;;;;;4.43;1.10;;;;;;;;;;4974515;28;20060;-78
2023/05/03 10:48:28;;;;;;;4.53;0.93;;;;;;;;;;4985659;28;20490;-77
2023/05/03 10:50:55;;;;;;;3.28;0.70;;;;;;;;;;4994493;28;20057;-79
2023/05/03 10:53:34;;;;;;;3.55;1.38;;;;;;;;;;4999338;28;20410;-78
2023/05/03 10:56:07;;;;;;;3.92;1.70;;;;;;;;;;4988514;28;20030;-79
2023/05/03 10:58:37;;;;;;;3.00;1.05;;;;;;;;;;4986906;28;20117;-79
2023/05/03 11:01:08;;;;;;;3.42;0.82;;;;;;;;;;5001856;28;20558;-79
2023/05/03 11:03:37;;;;;;;4.85;1.00;;;;;;;;;;4996320;28;20108;-80
2023/05/03 11:06:04;;;;;;;6.05;1.00;;;;;;;;;;4994306;28;20693;-80
2023/05/03 11:08:36;;;;;;;4.05;0.82;;;;;;;;;;5000729;28;20022;-79
2023/05/03 11:11:07;;;;;;;3.50;1.05;;;;;;;;;;5006514;28;20022;-80
2023/05/03 11:13:33;;;;;;;2.47;0.82;;;;;;;;;;4989459;28;20091;-81
2023/05/03 11:15:59;;;;;;;2.45;1.25;;;;;;;;;;4993374;28;20026;-80
2023/05/03 11:18:26;;;;;;;4.28;0.65;;;;;;;;;;4990763;28;20464;-79
2023/05/03 11:20:52;;;;;;;5.63;0.82;;;;;;;;;;4995652;28;20328;-80
2023/05/03 11:23:19;;;;;;;4.13;0.70;;;;;;;;;;4986974;28;20038;-79
2023/05/03 11:25:45;;;;;;;2.53;0.75;;;;;;;;;;4984431;28;20042;-80
2023/05/03 11:28:11;;;;;;;2.60;1.00;;;;;;;;;;4986461;28;20030;-80
2023/05/03 11:30:37;;;;;;;4.43;0.80;;;;;;;;;;4995612;28;20033;-78
2023/05/03 11:33:03;;;;;;;3.30;0.90;;;;;;;;;;5003950;28;20053;-81
2023/05/03 11:35:30;;;;;;;5.15;0.98;;;;;;;;;;4984264;28;20026;-79
2023/05/03 11:37:57;;;;;;;6.00;1.10;;;;;;;;;;4989524;28;20109;-80
2023/05/03 11:40:23;;;;;;;4.55;1.17;;;;;;;;;;4986003;28;20026;-80
2023/05/03 11:42:57;;;;;;;3.45;0.93;;;;;;;;;;4990172;28;20229;-79
2023/05/03 11:45:25;;;;;;;3.13;0.80;;;;;;;;;;4982128;28;20042;-74
2023/05/03 11:47:51;;;;;;;7.60;0.90;;;;;;;;;;4986873;28;20130;-80
2023/05/03 11:50:18;;;;;;;3.15;0.65;;;;;;;;;;4975140;28;20046;-81
2023/05/03 11:52:44;;;;;;;4.15;0.93;;;;;;;;;;4992000;28;20049;-79
2023/05/03 11:55:11;;;;;;;4.38;0.77;;;;;;;;;;4989249;28;20018;-79
2023/05/03 11:57:37;;;;;;;2.17;0.73;;;;;;;;;;4993923;28;20038;-77
2023/05/03 12:00:15;;;;;;;9.40;4.88;;;;;;;;;;4980655;28;20524;-74
2023/05/03 12:02:41;;;;;;;5.32;1.42;;;;;;;;;;4996694;28;20429;-75
2023/05/03 12:05:08;;;;;;;2.28;0.80;;;;;;;;;;4987050;28;20027;-76
2023/05/03 12:07:34;;;;;;;3.10;0.70;;;;;;;;;;4988283;28;20493;-80
2023/05/03 12:10:11;;;;;;;4.20;1.02;;;;;;;;;;4999759;28;20026;-77
2023/05/03 12:12:37;;;;;;;5.90;1.35;;;;;;;;;;4984524;28;20038;-76
2023/05/03 12:15:04;;;;;;;3.05;0.85;;;;;;;;;;4993413;28;20163;-75
2023/05/03 12:17:35;;;;;;;2.35;1.35;;;;;;;;;;4991081;28;20039;-75
2023/05/03 12:20:20;;;;;;;4.55;1.20;;;;;;;;;;4984569;28;20046;-74
2023/05/03 12:22:53;;;;;;;4.72;0.90;;;;;;;;;;4994061;28;20038;-75
2023/05/03 12:25:19;;;;;;;4.28;0.90;;;;;;;;;;4972472;28;20034;-75
2023/05/03 12:27:46;;;;;;;5.07;0.95;;;;;;;;;;4986396;28;20514;-75
2023/05/03 12:30:12;;;;;;;3.17;0.85;;;;;;;;;;4985378;28;20052;-76
2023/05/03 12:32:38;;;;;;;4.40;1.00;;;;;;;;;;4972912;28;20129;-76
2023/05/03 12:35:05;;;;;;;1.83;0.85;;;;;;;;;;4989110;28;20069;-75
2023/05/03 12:37:31;;;;;;;4.72;1.25;;;;;;;;;;4988143;28;20114;-75
2023/05/03 12:39:57;;;;;;;3.85;0.93;;;;;;;;;;4988421;28;20380;-74
2023/05/03 12:42:24;;;;;;;3.15;1.00;;;;;;;;;;4986511;28;20117;-75
2023/05/03 12:44:51;;;;;;;3.95;1.10;;;;;;;;;;4986956;28;20034;-75
2023/05/03 12:47:17;;;;;;;3.42;0.90;;;;;;;;;;4990901;28;20058;-75
2023/05/03 12:49:43;;;;;;;4.53;1.30;;;;;;;;;;4984008;28;20038;-75
2023/05/03 12:52:10;;;;;;;4.00;1.00;;;;;;;;;;4988372;28;20100;-75
2023/05/03 12:54:37;;;;;;;2.35;1.00;;;;;;;;;;4983648;28;20030;-75
2023/05/03 12:57:03;;;;;;;5.88;0.88;;;;;;;;;;4988009;28;20042;-75
2023/05/03 12:59:30;;;;;;;3.65;0.90;;;;;;;;;;4955507;28;20387;-75
2023/05/03 13:01:56;;;;;;;2.47;0.90;;;;;;;;;;4988367;28;20111;-76
2023/05/03 13:04:22;;;;;;;2.35;1.00;;;;;;;;;;4986456;28;20109;-76
2023/05/03 13:06:49;;;;;;;2.85;1.00;;;;;;;;;;4986713;28;20074;-75
2023/05/03 13:09:15;;;;;;;4.53;1.10;;;;;;;;;;4985117;28;20035;-75
2023/05/03 13:11:42;;;;;;;3.88;1.17;;;;;;;;;;4986473;28;20583;-75
2023/05/03 13:14:08;;;;;;;4.72;1.00;;;;;;;;;;4991703;28;20462;-76
2023/05/03 13:16:37;;;;;;;3.90;1.23;;;;;;;;;;4988080;28;20045;-75
2023/05/03 13:19:03;;;;;;;4.88;1.13;;;;;;;;;;4985228;28;20069;-75
2023/05/03 13:21:30;;;;;;;6.68;1.60;;;;;;;;;;4986129;28;20034;-75
2023/05/03 13:23:57;;;;;;;5.10;1.73;;;;;;;;;;4989507;28;20030;-75
2023/05/03 13:26:24;;;;;;;5.20;1.13;;;;;;;;;;4979559;28;20761;-75
2023/05/03 13:28:50;;;;;;;2.75;1.02;;;;;;;;;;4986427;28;20046;-75
2023/05/03 13:31:16;;;;;;;4.70;0.98;;;;;;;;;;4972431;28;20030;-75
2023/05/03 13:33:42;;;;;;;5.20;1.15;;;;;;;;;;4983760;28;20037;-75
2023/05/03 13:36:08;;;;;;;3.97;1.10;;;;;;;;;;4985652;28;20038;-75
2023/05/03 13:38:34;;;;;;;3.50;1.05;;;;;;;;;;4988607;28;20383;-75
2023/05/03 13:41:01;;;;;;;6.57;1.73;;;;;;;;;;4986893;28;20406;-75
2023/05/03 13:43:27;;;;;;;3.50;1.20;;;;;;;;;;4985056;28;20037;-75
2023/05/03 13:45:59;;;;;;;2.22;0.90;;;;;;;;;;4985621;28;20054;-75
2023/05/03 13:48:25;;;;;;;6.72;1.10;;;;;;;;;;4988944;28;20034;-75
2023/05/03 13:50:51;;;;;;;4.25;1.10;;;;;;;;;;4987843;28;20046;-75
2023/05/03 13:53:17;;;;;;;5.43;1.40;;;;;;;;;;4987439;28;20030;-75
2023/05/03 13:55:43;;;;;;;1.92;0.95;;;;;;;;;;4981884;28;20100;-76
2023/05/03 13:58:09;;;;;;;4.68;1.08;;;;;;;;;;4983827;28;20042;-75
2023/05/03 14:00:35;;;;;;;3.33;1.45;;;;;;;;;;4974587;28;20109;-75
2023/05/03 14:03:01;;;;;;;3.30;1.15;;;;;;;;;;4988325;28;20130;-75
2023/05/03 14:05:28;;;;;;;4.25;1.00;;;;;;;;;;4984984;28;20113;-75
2023/05/03 14:07:54;;;;;;;5.68;1.45;;;;;;;;;;4989870;28;20042;-75
2023/05/03 14:10:20;;;;;;;1.90;1.00;;;;;;;;;;4989255;28;20045;-75
2023/05/03 14:12:46;;;;;;;5.40;1.67;;;;;;;;;;4971530;28;20431;-75
2023/05/03 14:15:13;;;;;;;4.15;1.05;;;;;;;;;;4987335;28;20034;-75
2023/05/03 14:17:39;;;;;;;6.55;1.77;;;;;;;;;;4992579;28;20117;-75
2023/05/03 14:20:07;;;;;;;3.15;1.30;;;;;;;;;;4987889;28;20053;-75
2023/05/03 14:22:33;;;;;;;2.95;1.30;;;;;;;;;;4973464;28;20038;-76
2023/05/03 14:24:59;;;;;;;3.90;1.67;;;;;;;;;;4988104;28;20340;-75
2023/05/03 14:27:25;;;;;;;2.92;1.20;;;;;;;;;;4992417;28;20085;-75
2023/05/03 14:29:51;;;;;;;3.67;0.77;;;;;;;;;;4992103;28;20034;-75
2023/05/03 14:32:17;;;;;;;4.63;1.00;;;;;;;;;;4991014;28;20117;-75
2023/05/03 14:34:43;;;;;;;4.45;1.25;;;;;;;;;;4988931;28;20062;-75
2023/05/03 14:37:09;;;;;;;2.30;0.70;;;;;;;;;;4986696;28;20065;-74
2023/05/03 14:39:35;;;;;;;4.85;1.20;;;;;;;;;;4989290;28;20065;-75
2023/05/03 14:42:02;;;;;;;5.35;1.20;;;;;;;;;;4990838;28;20427;-75
2023/05/03 14:44:28;;;;;;;2.38;1.08;;;;;;;;;;4988321;28;20130;-75